Terminal Aerodrome Forecast
Issued by NWS Newport/Morehead City, NC

Home | Current Version | Previous Version | Text Only | Print | Product List | Glossary On
Versions: 1 2 3 4 5 6 7 8 9 10 11 12 13 14
000
FTUS42 KMHX 232340
TAFEWN
TAF
KEWN 232340Z 2400/2424 05010KT P6SM OVC008
     FM240300 05009KT P6SM VCSH OVC007
     FM241300 09010KT 4SM -SHRA OVC020
     FM241900 12012G20KT 3SM SHRA OVC025=

USA.gov is the U.S. government's official web portal to all federal, state and local government web resources and services.